createdAt,value
2022-12-25T00:00:05.835Z,24.00
2022-12-25T00:01:05.826Z,24.10
2022-12-25T00:02:05.744Z,32.00
2022-12-25T00:03:05.823Z,29.80
2022-12-25T00:04:05.764Z,29.10
2022-12-25T00:05:05.727Z,28.20
2022-12-25T00:06:05.715Z,25.60
2022-12-25T00:07:05.715Z,29.90
2022-12-25T00:08:05.704Z,29.50
2022-12-25T00:09:05.708Z,25.10
2022-12-25T00:10:05.715Z,25.40
2022-12-25T00:11:05.719Z,22.80
2022-12-25T00:12:05.682Z,25.90
2022-12-25T00:13:05.685Z,25.90
2022-12-25T00:14:05.695Z,26.90
2022-12-25T00:15:05.683Z,26.00
2022-12-25T00:16:05.676Z,22.10
2022-12-25T00:17:05.673Z,26.30
2022-12-25T00:18:06.247Z,25.50
2022-12-25T00:19:05.643Z,27.30
2022-12-25T00:20:05.732Z,22.10
2022-12-25T00:21:05.652Z,25.70
2022-12-25T00:22:05.621Z,25.00
2022-12-25T00:23:05.639Z,22.60
2022-12-25T00:24:05.611Z,26.40
2022-12-25T00:25:05.620Z,28.50
2022-12-25T00:26:05.606Z,24.60
2022-12-25T00:27:05.628Z,26.60
2022-12-25T00:28:05.586Z,26.70
2022-12-25T00:29:05.585Z,29.90
2022-12-25T00:30:05.575Z,25.80
2022-12-25T00:31:05.653Z,24.10
2022-12-25T00:32:05.590Z,28.40
2022-12-25T00:33:05.577Z,25.10
2022-12-25T00:34:05.569Z,23.70
2022-12-25T00:35:05.579Z,28.10
2022-12-25T00:36:05.541Z,27.10
2022-12-25T00:37:05.565Z,28.00
2022-12-25T00:38:06.259Z,26.20
2022-12-25T00:39:05.533Z,23.20
2022-12-25T00:40:05.528Z,25.30
2022-12-25T00:41:05.523Z,20.60
2022-12-25T00:42:05.504Z,29.20
2022-12-25T00:43:05.523Z,25.60
2022-12-25T00:44:05.504Z,24.60
2022-12-25T00:45:05.498Z,25.60
2022-12-25T00:46:05.528Z,25.90
2022-12-25T00:47:05.579Z,26.10
2022-12-25T00:48:05.496Z,27.30
2022-12-25T00:49:05.488Z,24.00
2022-12-25T00:50:05.479Z,28.70
2022-12-25T00:51:05.464Z,27.10
2022-12-25T00:52:06.191Z,24.50
2022-12-25T00:53:05.447Z,27.20
2022-12-25T00:54:05.625Z,24.50
2022-12-25T00:55:05.480Z,24.20
2022-12-25T00:56:05.440Z,22.50
2022-12-25T00:57:05.451Z,27.10
2022-12-25T00:58:05.418Z,25.90
2022-12-25T00:59:05.413Z,27.60
2022-12-25T01:00:05.408Z,25.90
2022-12-25T01:01:05.513Z,24.80
2022-12-25T01:02:05.484Z,27.50
2022-12-25T01:03:05.419Z,25.90
2022-12-25T01:04:05.382Z,21.40
2022-12-25T01:05:05.395Z,23.10
2022-12-25T01:06:05.373Z,22.70
2022-12-25T01:07:05.369Z,24.30
2022-12-25T01:08:05.357Z,23.90
2022-12-25T01:09:05.356Z,24.50
2022-12-25T01:10:05.362Z,24.20
2022-12-25T01:11:05.330Z,22.50
2022-12-25T01:12:05.328Z,25.30
2022-12-25T01:13:05.333Z,26.00
2022-12-25T01:14:05.331Z,19.30
2022-12-25T01:15:05.330Z,23.00
2022-12-25T01:16:05.342Z,23.50
2022-12-25T01:17:05.307Z,22.70
2022-12-25T01:18:07.899Z,23.10
2022-12-25T01:19:06.276Z,24.50
2022-12-25T01:20:05.292Z,21.60
2022-12-25T01:21:05.267Z,27.20
2022-12-25T01:22:05.267Z,17.30
2022-12-25T01:23:05.262Z,17.50
2022-12-25T01:24:05.246Z,16.20
2022-12-25T01:25:05.227Z,17.80
2022-12-25T01:26:06.250Z,17.20
2022-12-25T01:27:06.269Z,19.20
2022-12-25T01:28:05.226Z,22.70
2022-12-25T01:29:05.266Z,20.10
2022-12-25T01:30:05.227Z,23.10
2022-12-25T01:31:05.230Z,18.00
2022-12-25T01:32:05.308Z,20.80
2022-12-25T01:33:05.191Z,19.60
2022-12-25T01:34:05.190Z,16.60
2022-12-25T01:35:05.171Z,15.60
2022-12-25T01:36:05.180Z,17.60
2022-12-25T01:37:05.171Z,14.60
2022-12-25T01:38:05.180Z,15.20
2022-12-25T01:39:05.160Z,15.20
2022-12-25T01:40:05.147Z,17.10
2022-12-25T01:41:05.140Z,19.80
2022-12-25T01:42:05.154Z,24.10
2022-12-25T01:43:05.138Z,22.70
2022-12-25T01:44:05.118Z,22.00
2022-12-25T01:45:05.134Z,21.20
2022-12-25T01:46:05.150Z,21.40
2022-12-25T01:47:05.102Z,22.70
2022-12-25T01:48:05.102Z,27.50
2022-12-25T01:49:05.088Z,23.00
2022-12-25T01:50:05.108Z,22.80
2022-12-25T01:51:05.068Z,21.20
2022-12-25T01:52:05.128Z,21.70
2022-12-25T01:53:05.082Z,24.70
2022-12-25T01:54:05.083Z,20.20
2022-12-25T01:55:05.068Z,22.60
2022-12-25T01:56:05.048Z,23.70
2022-12-25T01:57:05.036Z,25.00
2022-12-25T01:58:05.052Z,22.80
2022-12-25T01:59:05.040Z,26.50
2022-12-25T02:00:05.032Z,25.80
2022-12-25T02:01:05.061Z,25.00
2022-12-25T02:02:05.266Z,23.10
2022-12-25T02:03:05.034Z,26.20
2022-12-25T02:04:05.040Z,21.50
2022-12-25T02:05:05.001Z,23.30
2022-12-25T02:06:05.005Z,29.30
2022-12-25T02:07:04.996Z,32.30
2022-12-25T02:08:04.969Z,26.40
2022-12-25T02:09:04.977Z,24.20
2022-12-25T02:10:04.972Z,24.50
2022-12-25T02:11:04.955Z,24.50
2022-12-25T02:12:04.945Z,20.90
2022-12-25T02:13:04.957Z,20.90
2022-12-25T02:14:04.938Z,28.00
2022-12-25T02:15:06.306Z,27.40
2022-12-25T02:16:06.009Z,24.80
2022-12-25T02:17:04.983Z,21.20
2022-12-25T02:18:04.937Z,21.30
2022-12-25T02:19:04.914Z,25.30
2022-12-25T02:20:04.917Z,26.80
2022-12-25T02:21:04.895Z,20.80
2022-12-25T02:22:04.919Z,18.40
2022-12-25T02:23:04.912Z,22.20
2022-12-25T02:24:04.877Z,19.00
2022-12-25T02:25:04.900Z,14.40
2022-12-25T02:26:04.889Z,15.60
2022-12-25T02:27:04.882Z,18.70
2022-12-25T02:28:04.885Z,21.90
2022-12-25T02:29:04.850Z,20.90
2022-12-25T02:30:05.847Z,21.30
2022-12-25T02:31:04.854Z,22.60
2022-12-25T02:32:04.915Z,18.30
2022-12-25T02:33:04.854Z,17.20
2022-12-25T02:34:04.857Z,13.60
2022-12-25T02:35:04.818Z,15.00
2022-12-25T02:36:04.798Z,18.50
2022-12-25T02:37:04.820Z,20.90
2022-12-25T02:38:04.814Z,21.80
2022-12-25T02:39:04.835Z,20.60
2022-12-25T02:40:04.808Z,20.80
2022-12-25T02:41:04.773Z,17.70
2022-12-25T02:42:04.800Z,14.90
2022-12-25T02:43:05.652Z,12.90
2022-12-25T02:44:05.783Z,15.80
2022-12-25T02:45:04.916Z,16.70
2022-12-25T02:46:04.801Z,18.30
2022-12-25T02:47:04.757Z,22.30
2022-12-25T02:48:04.734Z,16.50
2022-12-25T02:49:04.741Z,20.40
2022-12-25T02:50:04.758Z,15.00
2022-12-25T02:51:04.726Z,15.00
2022-12-25T02:52:04.717Z,16.30
2022-12-25T02:53:04.701Z,19.60
2022-12-25T02:54:04.708Z,20.70
2022-12-25T02:55:04.702Z,18.20
2022-12-25T02:56:04.683Z,18.80
2022-12-25T02:57:05.347Z,19.20
2022-12-25T02:58:05.726Z,17.90
2022-12-25T02:59:04.662Z,18.70
2022-12-25T03:00:05.670Z,20.10
2022-12-25T03:01:04.823Z,15.40
2022-12-25T03:02:04.758Z,18.10
2022-12-25T03:03:04.745Z,19.10
2022-12-25T03:04:04.638Z,20.20
2022-12-25T03:05:04.623Z,17.50
2022-12-25T03:06:04.657Z,16.00
2022-12-25T03:07:04.628Z,22.60
2022-12-25T03:08:04.626Z,22.30
2022-12-25T03:09:04.609Z,19.00
2022-12-25T03:10:04.619Z,24.10
2022-12-25T03:11:04.617Z,26.00
2022-12-25T03:12:04.609Z,24.90
2022-12-25T03:13:04.578Z,26.00
2022-12-25T03:14:04.715Z,18.90
2022-12-25T03:15:04.599Z,22.80
2022-12-25T03:16:04.566Z,23.80
2022-12-25T03:17:04.586Z,21.80
2022-12-25T03:18:04.589Z,23.10
2022-12-25T03:19:04.570Z,25.90
2022-12-25T03:20:04.590Z,28.10
2022-12-25T03:21:04.554Z,25.00
2022-12-25T03:22:04.531Z,21.80
2022-12-25T03:23:04.527Z,25.30
2022-12-25T03:24:04.541Z,26.50
2022-12-25T03:25:04.586Z,28.10
2022-12-25T03:26:04.523Z,30.10
2022-12-25T03:27:04.523Z,23.90
2022-12-25T03:28:04.508Z,21.40
2022-12-25T03:29:04.528Z,20.30
2022-12-25T03:30:04.492Z,19.30
2022-12-25T03:31:04.535Z,20.60
2022-12-25T03:32:04.480Z,21.50
2022-12-25T03:33:18.049Z,20.30
2022-12-25T03:34:06.550Z,20.40
2022-12-25T03:35:04.561Z,25.00
2022-12-25T03:36:04.468Z,20.90
2022-12-25T03:37:04.454Z,21.60
2022-12-25T03:38:04.457Z,22.80
2022-12-25T03:39:04.437Z,26.40
2022-12-25T03:40:04.439Z,22.50
2022-12-25T03:41:04.431Z,20.30
2022-12-25T03:42:04.422Z,21.10
2022-12-25T03:43:04.408Z,23.60
2022-12-25T03:44:04.416Z,23.10
2022-12-25T03:45:04.488Z,23.10
2022-12-25T03:46:04.430Z,27.00
2022-12-25T03:47:04.386Z,29.80
2022-12-25T03:48:04.386Z,25.30
2022-12-25T03:49:04.389Z,24.60
2022-12-25T03:50:04.376Z,23.10
2022-12-25T03:51:04.384Z,20.60
2022-12-25T03:52:04.412Z,24.50
2022-12-25T03:53:04.357Z,22.60
2022-12-25T03:54:04.364Z,19.40
2022-12-25T03:55:04.363Z,26.90
2022-12-25T03:56:04.339Z,24.00
2022-12-25T03:57:04.331Z,22.00
2022-12-25T03:58:04.348Z,19.30
2022-12-25T03:59:04.319Z,20.60
2022-12-25T04:00:04.323Z,24.10
2022-12-25T04:01:04.382Z,19.00
2022-12-25T04:02:04.505Z,17.90
2022-12-25T04:03:04.381Z,15.50
2022-12-25T04:04:04.451Z,19.80
2022-12-25T04:05:04.288Z,21.90
2022-12-25T04:06:04.295Z,21.20
2022-12-25T04:07:04.293Z,19.20
2022-12-25T04:08:04.295Z,19.90
2022-12-25T04:09:04.286Z,18.70
2022-12-25T04:10:04.265Z,16.60
2022-12-25T04:11:04.276Z,16.50
2022-12-25T04:12:04.278Z,16.40
2022-12-25T04:13:04.274Z,16.70
2022-12-25T04:14:04.286Z,17.90
2022-12-25T04:15:04.225Z,16.90
2022-12-25T04:16:04.275Z,18.30
2022-12-25T04:17:04.234Z,18.90
2022-12-25T04:18:04.263Z,19.30
2022-12-25T04:19:04.201Z,19.40
2022-12-25T04:20:04.202Z,22.10
2022-12-25T04:21:04.194Z,19.50
2022-12-25T04:22:04.187Z,18.00
2022-12-25T04:23:04.202Z,20.70
2022-12-25T04:24:04.191Z,20.90
2022-12-25T04:25:04.168Z,21.60
2022-12-25T04:26:04.161Z,24.40
2022-12-25T04:27:04.144Z,19.00
2022-12-25T04:28:04.139Z,25.40
2022-12-25T04:29:04.159Z,25.20
2022-12-25T04:30:04.138Z,23.70
2022-12-25T04:31:04.171Z,20.00
2022-12-25T04:32:04.131Z,19.70
2022-12-25T04:33:04.107Z,20.20
2022-12-25T04:34:04.121Z,25.80
2022-12-25T04:35:04.095Z,22.60
2022-12-25T04:36:04.100Z,20.40
2022-12-25T04:37:04.087Z,19.00
2022-12-25T04:38:04.095Z,18.20
2022-12-25T04:39:04.118Z,21.50
2022-12-25T04:40:04.076Z,22.20
2022-12-25T04:41:04.065Z,23.70
2022-12-25T04:42:04.053Z,26.10
2022-12-25T04:43:05.049Z,25.20
2022-12-25T04:44:04.074Z,22.00
2022-12-25T04:45:04.064Z,26.20
2022-12-25T04:46:04.086Z,24.20
2022-12-25T04:47:10.751Z,25.20
2022-12-25T04:48:06.034Z,28.10
2022-12-25T04:49:04.011Z,28.90
2022-12-25T04:50:04.063Z,30.10
2022-12-25T04:51:03.999Z,31.30
2022-12-25T04:52:04.007Z,27.30
2022-12-25T04:53:03.990Z,22.70
2022-12-25T04:54:03.988Z,30.40
2022-12-25T04:55:04.016Z,29.80
2022-12-25T04:56:03.966Z,33.60
2022-12-25T04:57:03.976Z,24.60
2022-12-25T04:58:03.988Z,25.40
2022-12-25T04:59:03.967Z,26.30
2022-12-25T05:00:04.038Z,27.00
2022-12-25T05:01:04.008Z,30.80
2022-12-25T05:02:04.043Z,29.90
2022-12-25T05:03:04.076Z,28.40
2022-12-25T05:04:03.936Z,26.40
2022-12-25T05:05:03.926Z,29.20
2022-12-25T05:06:03.979Z,24.60
2022-12-25T05:07:03.929Z,23.50
2022-12-25T05:08:03.916Z,23.60
2022-12-25T05:09:03.920Z,19.80
2022-12-25T05:10:03.887Z,20.70
2022-12-25T05:11:03.899Z,27.20
2022-12-25T05:12:03.934Z,27.20
2022-12-25T05:13:03.879Z,23.30
2022-12-25T05:14:03.873Z,25.00
2022-12-25T05:15:03.866Z,33.40
2022-12-25T05:16:04.026Z,30.70
2022-12-25T05:17:03.877Z,23.40
2022-12-25T05:18:03.894Z,30.60
2022-12-25T05:19:03.870Z,27.30
2022-12-25T05:20:03.863Z,31.80
2022-12-25T05:21:03.826Z,26.90
2022-12-25T05:22:03.843Z,33.20
2022-12-25T05:23:03.845Z,33.50
2022-12-25T05:24:03.816Z,36.20
2022-12-25T05:25:03.798Z,32.00
2022-12-25T05:26:03.792Z,35.20
2022-12-25T05:27:03.805Z,36.20
2022-12-25T05:28:03.785Z,38.30
2022-12-25T05:29:03.779Z,35.90
2022-12-25T05:30:03.776Z,31.60
2022-12-25T05:31:03.845Z,27.10
2022-12-25T05:32:03.770Z,27.90
2022-12-25T05:33:03.766Z,25.40
2022-12-25T05:34:03.764Z,25.30
2022-12-25T05:35:03.740Z,24.00
2022-12-25T05:36:03.737Z,30.00
2022-12-25T05:37:03.724Z,25.30
2022-12-25T05:38:03.721Z,21.00
2022-12-25T05:39:04.723Z,20.90
2022-12-25T05:40:04.260Z,19.10
2022-12-25T05:41:03.736Z,19.40
2022-12-25T05:42:03.738Z,19.30
2022-12-25T05:43:03.707Z,20.00
2022-12-25T05:44:03.692Z,31.70
2022-12-25T05:45:03.713Z,28.50
2022-12-25T05:46:03.705Z,25.70
2022-12-25T05:47:03.723Z,21.20
2022-12-25T05:48:03.680Z,20.30
2022-12-25T05:49:03.660Z,17.80
2022-12-25T05:50:03.678Z,26.50
2022-12-25T05:51:03.667Z,22.70
2022-12-25T05:52:03.639Z,23.40
2022-12-25T05:53:08.087Z,26.60
2022-12-25T05:54:05.628Z,20.70
2022-12-25T05:55:03.627Z,22.60
2022-12-25T05:56:03.632Z,22.90
2022-12-25T05:57:03.652Z,21.40
2022-12-25T05:58:03.634Z,24.00
2022-12-25T05:59:03.606Z,27.40
2022-12-25T06:00:03.740Z,28.70
2022-12-25T06:01:03.599Z,29.20
2022-12-25T06:02:03.692Z,25.10
2022-12-25T06:03:03.771Z,26.50
2022-12-25T06:04:08.435Z,24.50
2022-12-25T06:05:05.584Z,32.30
2022-12-25T06:06:03.564Z,31.20
2022-12-25T06:07:03.564Z,27.20
2022-12-25T06:08:03.564Z,24.30
2022-12-25T06:09:03.532Z,23.60
2022-12-25T06:10:04.524Z,26.80
2022-12-25T06:11:03.536Z,27.60
2022-12-25T06:12:03.532Z,26.80
2022-12-25T06:13:03.526Z,35.60
2022-12-25T06:14:03.521Z,30.00
2022-12-25T06:15:03.498Z,35.80
2022-12-25T06:16:03.509Z,34.90
2022-12-25T06:17:03.657Z,33.60
2022-12-25T06:18:03.517Z,26.40
2022-12-25T06:19:03.515Z,35.40
2022-12-25T06:20:03.520Z,23.40
2022-12-25T06:21:03.458Z,23.50
2022-12-25T06:22:03.496Z,25.10
2022-12-25T06:23:03.548Z,31.70
2022-12-25T06:24:03.544Z,30.10
2022-12-25T06:25:03.447Z,30.50
2022-12-25T06:26:03.488Z,35.00
2022-12-25T06:27:03.441Z,24.60
2022-12-25T06:28:03.440Z,34.70
2022-12-25T06:29:03.466Z,38.10
2022-12-25T06:30:03.407Z,29.90
2022-12-25T06:31:04.430Z,31.70
2022-12-25T06:32:03.417Z,26.20
2022-12-25T06:33:03.434Z,24.70
2022-12-25T06:34:03.388Z,32.00
2022-12-25T06:35:03.467Z,27.30
2022-12-25T06:36:03.384Z,24.20
2022-12-25T06:37:03.375Z,24.30
2022-12-25T06:38:03.396Z,26.30
2022-12-25T06:39:03.386Z,26.20
2022-12-25T06:40:03.357Z,29.80
2022-12-25T06:41:03.446Z,35.80
2022-12-25T06:42:03.350Z,28.80
2022-12-25T06:43:04.235Z,24.40
2022-12-25T06:44:03.375Z,20.10
2022-12-25T06:45:03.338Z,25.20
2022-12-25T06:46:03.357Z,20.40
2022-12-25T06:47:03.396Z,25.90
2022-12-25T06:48:03.331Z,23.20
2022-12-25T06:49:03.303Z,32.90
2022-12-25T06:50:03.347Z,28.30
2022-12-25T06:51:03.306Z,20.80
2022-12-25T06:52:03.296Z,23.60
2022-12-25T06:53:03.325Z,37.80
2022-12-25T06:54:03.313Z,34.60
2022-12-25T06:55:03.284Z,33.60
2022-12-25T06:56:03.300Z,33.10
2022-12-25T06:57:03.273Z,28.20
2022-12-25T06:58:03.261Z,30.30
2022-12-25T06:59:03.305Z,23.00
2022-12-25T07:00:03.298Z,27.20
2022-12-25T07:01:03.267Z,36.80
2022-12-25T07:02:03.408Z,35.00
2022-12-25T07:03:03.470Z,38.50
2022-12-25T07:04:03.235Z,35.90
2022-12-25T07:05:03.219Z,43.30
2022-12-25T07:06:03.282Z,41.50
2022-12-25T07:07:08.372Z,38.20
2022-12-25T07:08:05.208Z,34.70
2022-12-25T07:09:03.238Z,37.60
2022-12-25T07:10:03.201Z,36.80
2022-12-25T07:11:03.186Z,32.20
2022-12-25T07:12:03.247Z,30.00
2022-12-25T07:13:03.558Z,25.70
2022-12-25T07:14:03.175Z,24.10
2022-12-25T07:15:04.156Z,21.00
2022-12-25T07:16:03.234Z,25.70
2022-12-25T07:17:03.148Z,26.10
2022-12-25T07:18:03.134Z,29.30
2022-12-25T07:19:03.151Z,24.10
2022-12-25T07:20:03.150Z,24.90
2022-12-25T07:21:03.135Z,30.10
2022-12-25T07:22:03.150Z,25.40
2022-12-25T07:23:03.111Z,25.50
2022-12-25T07:24:03.101Z,25.90
2022-12-25T07:25:03.136Z,21.20
2022-12-25T07:26:03.100Z,26.20
2022-12-25T07:27:03.102Z,27.90
2022-12-25T07:28:03.107Z,33.30
2022-12-25T07:29:03.090Z,38.10
2022-12-25T07:30:03.090Z,29.40
2022-12-25T07:31:03.118Z,28.50
2022-12-25T07:32:03.112Z,21.50
2022-12-25T07:33:03.071Z,31.00
2022-12-25T07:34:03.083Z,36.30
2022-12-25T07:35:03.079Z,33.10
2022-12-25T07:36:04.047Z,34.70
2022-12-25T07:37:03.077Z,30.30
2022-12-25T07:38:03.058Z,27.00
2022-12-25T07:39:03.032Z,28.90
2022-12-25T07:40:03.105Z,23.60
2022-12-25T07:41:03.023Z,27.60
2022-12-25T07:42:03.013Z,33.90
2022-12-25T07:43:03.042Z,28.60
2022-12-25T07:44:03.010Z,24.30
2022-12-25T07:45:02.992Z,32.10
2022-12-25T07:46:03.069Z,24.90
2022-12-25T07:47:02.984Z,24.30
2022-12-25T07:48:05.890Z,24.40
2022-12-25T07:49:03.999Z,22.20
2022-12-25T07:50:02.968Z,25.90
2022-12-25T07:51:02.958Z,34.70
2022-12-25T07:52:02.977Z,29.60
2022-12-25T07:53:02.963Z,19.90
2022-12-25T07:54:02.943Z,21.30
2022-12-25T07:55:02.953Z,25.40
2022-12-25T07:56:02.947Z,24.70
2022-12-25T07:57:04.279Z,25.80
2022-12-25T07:58:02.913Z,31.40
2022-12-25T07:59:02.904Z,24.90
2022-12-25T08:00:02.945Z,26.40
2022-12-25T08:01:03.059Z,28.00
2022-12-25T08:02:03.191Z,22.20
2022-12-25T08:03:03.127Z,18.30
2022-12-25T08:04:02.995Z,20.90
2022-12-25T08:05:02.876Z,26.10
2022-12-25T08:06:02.912Z,30.00
2022-12-25T08:07:02.861Z,29.90
2022-12-25T08:08:02.866Z,18.40
2022-12-25T08:09:02.887Z,22.80
2022-12-25T08:10:02.859Z,26.70
2022-12-25T08:11:02.845Z,28.60
2022-12-25T08:12:02.878Z,26.40
2022-12-25T08:13:02.886Z,25.80
2022-12-25T08:14:02.845Z,23.50
2022-12-25T08:15:03.525Z,25.20
2022-12-25T08:16:02.853Z,26.70
2022-12-25T08:17:02.969Z,25.40
2022-12-25T08:18:02.805Z,25.30
2022-12-25T08:19:02.783Z,21.70
2022-12-25T08:20:03.792Z,24.20
2022-12-25T08:21:02.801Z,33.80
2022-12-25T08:22:02.797Z,33.40
2022-12-25T08:23:02.771Z,34.30
2022-12-25T08:24:02.796Z,35.80
2022-12-25T08:25:02.762Z,34.90
2022-12-25T08:26:05.552Z,33.90
2022-12-25T08:27:03.770Z,35.80
2022-12-25T08:28:02.754Z,34.40
2022-12-25T08:29:02.821Z,31.60
2022-12-25T08:30:02.744Z,37.70
2022-12-25T08:31:02.814Z,36.30
2022-12-25T08:32:02.715Z,36.30
2022-12-25T08:33:02.733Z,26.70
2022-12-25T08:34:02.711Z,29.20
2022-12-25T08:35:02.711Z,26.90
2022-12-25T08:36:02.697Z,26.30
2022-12-25T08:37:02.698Z,34.60
2022-12-25T08:38:02.681Z,38.90
2022-12-25T08:39:03.575Z,34.50
2022-12-25T08:40:03.690Z,31.00
2022-12-25T08:41:02.678Z,30.90
2022-12-25T08:42:02.732Z,31.40
2022-12-25T08:43:02.665Z,30.00
2022-12-25T08:44:02.690Z,26.90
2022-12-25T08:45:02.658Z,29.00
2022-12-25T08:46:02.721Z,23.10
2022-12-25T08:47:02.637Z,31.60
2022-12-25T08:48:02.701Z,28.10
2022-12-25T08:49:02.636Z,34.10
2022-12-25T08:50:02.646Z,33.40
2022-12-25T08:51:02.652Z,23.20
2022-12-25T08:52:02.605Z,17.30
2022-12-25T08:53:02.609Z,28.10
2022-12-25T08:54:02.608Z,27.00
2022-12-25T08:55:02.623Z,27.10
2022-12-25T08:56:02.586Z,27.00
2022-12-25T08:57:03.178Z,29.80
2022-12-25T08:58:03.602Z,29.30
2022-12-25T08:59:02.569Z,23.60
2022-12-25T09:00:02.571Z,21.00
2022-12-25T09:01:02.597Z,25.20
2022-12-25T09:02:02.781Z,25.90
2022-12-25T09:03:02.765Z,23.30
2022-12-25T09:04:02.560Z,24.80
2022-12-25T09:05:02.588Z,22.10
2022-12-25T09:06:02.538Z,19.90
2022-12-25T09:07:02.521Z,29.60
2022-12-25T09:08:02.776Z,27.40
2022-12-25T09:09:02.610Z,21.30
2022-12-25T09:10:02.533Z,21.60
2022-12-25T09:11:02.545Z,18.70
2022-12-25T09:12:02.519Z,16.90
2022-12-25T09:13:02.499Z,17.10
2022-12-25T09:14:02.477Z,15.00
2022-12-25T09:15:02.515Z,12.00
2022-12-25T09:16:02.537Z,10.90
2022-12-25T09:17:02.476Z,11.00
2022-12-25T09:18:02.484Z,9.30
2022-12-25T09:19:02.457Z,11.00
2022-12-25T09:20:03.397Z,13.10
2022-12-25T09:21:02.442Z,13.00
2022-12-25T09:22:02.492Z,11.30
2022-12-25T09:23:02.445Z,10.50
2022-12-25T09:24:02.431Z,10.90
2022-12-25T09:25:02.487Z,13.00
2022-12-25T09:26:02.429Z,15.40
2022-12-25T09:27:02.482Z,13.30
2022-12-25T09:28:02.417Z,12.60
2022-12-25T09:29:02.399Z,10.20
2022-12-25T09:30:02.412Z,10.30
2022-12-25T09:31:02.430Z,10.70
2022-12-25T09:32:02.440Z,12.90
2022-12-25T09:33:02.381Z,11.30
2022-12-25T09:34:02.393Z,11.30
2022-12-25T09:35:02.365Z,13.70
2022-12-25T09:36:02.360Z,11.80
2022-12-25T09:37:02.391Z,14.50
2022-12-25T09:38:02.371Z,14.30
2022-12-25T09:39:02.346Z,13.60
2022-12-25T09:40:02.357Z,12.60
2022-12-25T09:41:02.339Z,12.00
2022-12-25T09:42:02.362Z,11.70
2022-12-25T09:43:02.336Z,11.10
2022-12-25T09:44:02.453Z,10.60
2022-12-25T09:45:02.298Z,8.00
2022-12-25T09:46:02.497Z,8.70
2022-12-25T09:47:02.389Z,9.90
2022-12-25T09:48:02.299Z,11.00
2022-12-25T09:49:03.291Z,12.20
2022-12-25T09:50:02.291Z,14.80
2022-12-25T09:51:02.260Z,10.10
2022-12-25T09:52:02.289Z,11.80
2022-12-25T09:53:02.285Z,11.90
2022-12-25T09:54:02.254Z,13.20
2022-12-25T09:55:02.266Z,12.70
2022-12-25T09:56:02.231Z,12.90
2022-12-25T09:57:02.249Z,16.80
2022-12-25T09:58:02.241Z,17.60
2022-12-25T09:59:02.215Z,16.90
2022-12-25T10:00:02.203Z,15.50
2022-12-25T10:01:02.259Z,21.00
2022-12-25T10:02:02.332Z,19.40
2022-12-25T10:03:02.476Z,19.70
2022-12-25T10:04:02.192Z,21.00
2022-12-25T10:05:02.177Z,21.50
2022-12-25T10:06:02.163Z,22.50
2022-12-25T10:07:02.182Z,19.90
2022-12-25T10:08:02.182Z,11.90
2022-12-25T10:09:02.162Z,19.30
2022-12-25T10:10:02.144Z,17.10
2022-12-25T10:11:02.127Z,17.20
2022-12-25T10:12:02.168Z,15.20
2022-12-25T10:13:02.141Z,16.30
2022-12-25T10:14:02.130Z,12.30
2022-12-25T10:15:02.159Z,11.10
2022-12-25T10:16:02.120Z,10.70
2022-12-25T10:17:02.161Z,7.70
2022-12-25T10:18:02.119Z,9.00
2022-12-25T10:19:02.100Z,8.60
2022-12-25T10:20:02.118Z,8.80
2022-12-25T10:21:02.067Z,8.30
2022-12-25T10:22:02.075Z,9.20
2022-12-25T10:23:02.121Z,9.10
2022-12-25T10:24:02.072Z,8.90
2022-12-25T10:25:02.075Z,9.20
2022-12-25T10:26:02.041Z,8.10
2022-12-25T10:27:02.051Z,7.50
2022-12-25T10:28:02.027Z,7.10
2022-12-25T10:29:02.080Z,7.60
2022-12-25T10:30:02.039Z,8.10
2022-12-25T10:31:02.066Z,8.00
2022-12-25T10:32:01.998Z,7.00
2022-12-25T10:33:02.023Z,7.50
2022-12-25T10:34:02.009Z,7.40
2022-12-25T10:35:01.998Z,7.10
2022-12-25T10:36:02.985Z,7.00
2022-12-25T10:37:02.009Z,7.70
2022-12-25T10:38:01.959Z,9.40
2022-12-25T10:39:01.991Z,8.80
2022-12-25T10:40:01.994Z,8.70
2022-12-25T10:41:01.982Z,8.60
2022-12-25T10:42:01.931Z,10.90
2022-12-25T10:43:01.976Z,10.90
2022-12-25T10:44:01.933Z,11.80
2022-12-25T10:45:01.963Z,11.50
2022-12-25T10:46:01.966Z,10.40
2022-12-25T10:47:01.952Z,11.20
2022-12-25T10:48:06.879Z,9.90
2022-12-25T10:49:03.918Z,8.40
2022-12-25T10:50:01.922Z,9.00
2022-12-25T10:51:01.895Z,11.50
2022-12-25T10:52:01.873Z,11.90
2022-12-25T10:53:01.854Z,13.60
2022-12-25T10:54:01.883Z,11.00
2022-12-25T10:55:01.851Z,10.50
2022-12-25T10:56:01.865Z,10.80
2022-12-25T10:57:01.849Z,11.20
2022-12-25T10:58:02.060Z,10.90
2022-12-25T10:59:01.848Z,9.60
2022-12-25T11:00:01.844Z,10.10
2022-12-25T11:01:01.840Z,9.90
2022-12-25T11:02:01.926Z,10.80
2022-12-25T11:03:02.156Z,9.20
2022-12-25T11:04:01.836Z,10.30
2022-12-25T11:05:01.783Z,9.90
2022-12-25T11:06:01.798Z,9.60
2022-12-25T11:07:01.786Z,10.10
2022-12-25T11:08:02.980Z,10.30
2022-12-25T11:09:01.791Z,9.30
2022-12-25T11:10:05.089Z,9.90
2022-12-25T11:11:02.829Z,10.30
2022-12-25T11:12:01.745Z,11.50
2022-12-25T11:13:01.728Z,12.10
2022-12-25T11:14:01.735Z,12.20
2022-12-25T11:15:01.720Z,10.30
2022-12-25T11:16:01.779Z,10.70
2022-12-25T11:17:01.690Z,9.90
2022-12-25T11:18:01.681Z,10.30
2022-12-25T11:19:02.745Z,9.10
2022-12-25T11:20:01.741Z,10.80
2022-12-25T11:21:01.679Z,10.40
2022-12-25T11:22:01.701Z,9.40
2022-12-25T11:23:01.681Z,9.30
2022-12-25T11:24:01.739Z,10.90
2022-12-25T11:25:01.672Z,10.50
2022-12-25T11:26:01.634Z,11.30
2022-12-25T11:27:01.689Z,12.80
2022-12-25T11:28:01.644Z,13.90
2022-12-25T11:29:01.639Z,14.40
2022-12-25T11:30:01.638Z,13.60
2022-12-25T11:31:01.766Z,13.40
2022-12-25T11:32:01.603Z,15.10
2022-12-25T11:33:01.595Z,14.30
2022-12-25T11:34:01.584Z,13.20
2022-12-25T11:35:01.575Z,13.30
2022-12-25T11:36:01.620Z,41.30
2022-12-25T11:37:01.688Z,23.10
2022-12-25T11:38:01.598Z,19.90
2022-12-25T11:39:01.721Z,29.40
2022-12-25T11:40:01.586Z,20.10
2022-12-25T11:41:01.552Z,13.90
2022-12-25T11:42:01.548Z,15.90
2022-12-25T11:43:07.547Z,14.60
2022-12-25T11:44:03.515Z,11.90
2022-12-25T11:45:01.536Z,13.20
2022-12-25T11:46:01.537Z,13.60
2022-12-25T11:47:01.623Z,11.60
2022-12-25T11:48:01.513Z,11.00
2022-12-25T11:49:02.497Z,12.90
2022-12-25T11:50:01.513Z,13.40
2022-12-25T11:51:01.489Z,13.00
2022-12-25T11:52:01.478Z,11.80
2022-12-25T11:53:01.462Z,11.50
2022-12-25T11:54:01.461Z,14.00
2022-12-25T11:55:01.452Z,12.00
2022-12-25T11:56:01.459Z,12.60
2022-12-25T11:57:01.438Z,13.30
2022-12-25T11:58:01.452Z,13.90
2022-12-25T11:59:01.415Z,13.90
2022-12-25T12:00:01.420Z,14.20
2022-12-25T12:01:01.411Z,13.10
2022-12-25T12:02:01.516Z,15.70
2022-12-25T12:03:10.231Z,14.30
2022-12-25T12:04:02.436Z,16.50
2022-12-25T12:05:01.948Z,16.40
2022-12-25T12:06:01.392Z,14.80
2022-12-25T12:07:01.361Z,14.90
2022-12-25T12:08:01.384Z,15.40
2022-12-25T12:09:01.348Z,15.70
2022-12-25T12:10:01.403Z,17.10
2022-12-25T12:11:01.386Z,18.20
2022-12-25T12:12:01.340Z,18.20
2022-12-25T12:13:01.336Z,17.40
2022-12-25T12:14:01.358Z,15.90
2022-12-25T12:15:01.329Z,17.00
2022-12-25T12:16:01.331Z,16.50
2022-12-25T12:17:01.293Z,14.60
2022-12-25T12:18:01.315Z,12.30
2022-12-25T12:19:01.272Z,16.40
2022-12-25T12:20:01.309Z,16.60
2022-12-25T12:21:01.276Z,16.60
2022-12-25T12:22:01.274Z,14.70
2022-12-25T12:23:01.283Z,15.00
2022-12-25T12:24:01.420Z,15.40
2022-12-25T12:25:01.263Z,15.30
2022-12-25T12:26:01.232Z,14.20
2022-12-25T12:27:01.245Z,13.00
2022-12-25T12:28:05.407Z,17.40
2022-12-25T12:29:02.280Z,21.30
2022-12-25T12:30:01.234Z,32.20
2022-12-25T12:31:01.192Z,24.20
2022-12-25T12:32:01.235Z,22.30
2022-12-25T12:33:01.235Z,22.20
2022-12-25T12:34:01.187Z,23.90
2022-12-25T12:35:01.205Z,22.20
2022-12-25T12:36:01.239Z,18.70
2022-12-25T12:37:01.174Z,17.20
2022-12-25T12:38:02.734Z,14.20
2022-12-25T12:39:01.149Z,13.50
2022-12-25T12:40:01.147Z,14.70
2022-12-25T12:41:01.127Z,14.80
2022-12-25T12:42:01.198Z,15.60
2022-12-25T12:43:01.178Z,15.50
2022-12-25T12:44:01.193Z,18.60
2022-12-25T12:45:01.121Z,16.80
2022-12-25T12:46:01.148Z,14.80
2022-12-25T12:47:01.100Z,14.10
2022-12-25T12:48:01.101Z,15.80
2022-12-25T12:49:01.094Z,15.40
2022-12-25T12:50:01.083Z,20.40
2022-12-25T12:51:01.164Z,26.30
2022-12-25T12:52:01.122Z,23.80
2022-12-25T12:53:01.043Z,22.30
2022-12-25T12:54:01.057Z,21.70